createdAt,value
2019-02-27T00:01:06.915Z,53.41
2019-02-27T00:03:36.143Z,53.63
2019-02-27T00:06:05.644Z,53.53
2019-02-27T00:08:35.086Z,53.65
2019-02-27T00:11:04.333Z,53.74
2019-02-27T00:13:33.498Z,53.89
2019-02-27T00:16:04.801Z,54.06
2019-02-27T00:18:34.682Z,54.14
2019-02-27T00:21:04.512Z,54.16
2019-02-27T00:23:35.741Z,54.19
2019-02-27T00:26:08.789Z,54.21
2019-02-27T00:28:36.443Z,54.19
2019-02-27T00:31:11.243Z,54.20
2019-02-27T00:33:37.566Z,54.25
2019-02-27T00:36:09.818Z,54.24
2019-02-27T00:38:37.046Z,54.35
2019-02-27T00:41:06.981Z,54.40
2019-02-27T00:43:36.794Z,54.44
2019-02-27T00:46:06.214Z,54.48
2019-02-27T00:48:36.107Z,54.58
2019-02-27T00:51:06.849Z,54.69
2019-02-27T00:53:37.267Z,54.76
2019-02-27T00:56:07.098Z,54.81
2019-02-27T00:58:36.994Z,54.94
2019-02-27T01:01:07.210Z,55.07
2019-02-27T01:03:36.994Z,55.31
2019-02-27T01:06:06.781Z,55.68
2019-02-27T01:08:37.886Z,56.12
2019-02-27T01:11:07.807Z,56.35
2019-02-27T01:13:37.694Z,56.29
2019-02-27T01:16:07.915Z,56.36
2019-02-27T01:18:37.018Z,56.39
2019-02-27T01:21:06.700Z,56.43
2019-02-27T01:23:37.767Z,56.60
2019-02-27T01:26:08.029Z,56.64
2019-02-27T01:28:37.848Z,56.66
2019-02-27T01:31:07.835Z,56.73
2019-02-27T01:33:38.839Z,56.85
2019-02-27T01:36:08.446Z,57.13
2019-02-27T01:38:38.605Z,57.19
2019-02-27T01:41:07.743Z,57.11
2019-02-27T01:43:39.871Z,57.09
2019-02-27T01:46:08.733Z,57.09
2019-02-27T01:48:42.769Z,57.09
2019-02-27T01:51:08.519Z,57.07
2019-02-27T01:53:40.446Z,57.08
2019-02-27T01:56:08.774Z,57.09
2019-02-27T01:58:38.499Z,57.19
2019-02-27T02:01:08.434Z,57.35
2019-02-27T02:03:38.279Z,57.43
2019-02-27T02:06:08.382Z,57.61
2019-02-27T02:08:39.068Z,57.64
2019-02-27T02:11:09.043Z,57.53
2019-02-27T02:13:59.392Z,57.43
2019-02-27T02:16:41.058Z,57.33
2019-02-27T02:19:38.966Z,57.25
2019-02-27T02:22:19.438Z,57.20
2019-02-27T02:25:44.934Z,57.28
2019-02-27T02:29:33.465Z,57.49
2019-02-27T02:32:16.728Z,57.77
2019-02-27T02:35:27.156Z,57.89
2019-02-27T02:40:06.626Z,57.93
2019-02-27T02:42:59.174Z,57.78
2019-02-27T02:45:37.818Z,57.75
2019-02-27T02:48:16.376Z,57.76
2019-02-27T02:51:31.314Z,57.74
2019-02-27T02:54:13.440Z,57.80
2019-02-27T02:57:00.175Z,57.89
2019-02-27T03:01:49.158Z,57.99
2019-02-27T03:05:27.770Z,57.93
2019-02-27T03:08:04.157Z,57.91
2019-02-27T03:10:46.569Z,58.08
2019-02-27T03:13:28.758Z,58.39
2019-02-27T03:16:41.371Z,58.43
2019-02-27T03:19:52.870Z,58.73
2019-02-27T03:22:29.968Z,58.81
2019-02-27T03:25:11.040Z,58.83
2019-02-27T03:27:54.349Z,58.96
2019-02-27T03:31:16.214Z,59.21
2019-02-27T03:34:21.294Z,59.31
2019-02-27T03:37:00.888Z,59.43
2019-02-27T03:39:42.763Z,59.60
2019-02-27T03:42:22.399Z,59.65
2019-02-27T03:45:00.345Z,59.75
2019-02-27T03:47:40.525Z,60.01
2019-02-27T03:50:24.709Z,60.29
2019-02-27T03:53:01.142Z,60.63
2019-02-27T03:55:42.240Z,60.88
2019-02-27T03:58:39.825Z,61.04
2019-02-27T04:01:20.248Z,61.25
2019-02-27T04:06:07.687Z,61.49
2019-02-27T04:08:47.738Z,61.86
2019-02-27T04:11:17.493Z,62.08
2019-02-27T04:13:47.769Z,62.17
2019-02-27T04:16:18.408Z,62.16
2019-02-27T04:18:48.246Z,62.61
2019-02-27T04:21:25.001Z,62.67
2019-02-27T04:23:49.234Z,62.93
2019-02-27T04:26:19.404Z,62.91
2019-02-27T04:28:47.756Z,63.42
2019-02-27T04:31:17.635Z,63.67
2019-02-27T04:33:47.508Z,63.86
2019-02-27T04:36:17.454Z,64.19
2019-02-27T04:38:46.596Z,64.36
2019-02-27T04:41:17.853Z,64.73
2019-02-27T04:43:46.142Z,64.92
2019-02-27T04:46:15.274Z,65.11
2019-02-27T04:48:45.194Z,65.61
2019-02-27T04:51:17.199Z,65.60
2019-02-27T04:53:45.545Z,66.01
2019-02-27T04:56:14.724Z,66.87
2019-02-27T04:58:44.858Z,67.06
2019-02-27T05:01:14.544Z,66.89
2019-02-27T05:03:43.842Z,66.93
2019-02-27T05:06:14.464Z,67.48
2019-02-27T05:08:43.942Z,67.75
2019-02-27T05:11:14.311Z,67.60
2019-02-27T05:13:43.236Z,67.60
2019-02-27T05:16:14.282Z,67.57
2019-02-27T05:18:43.256Z,67.62
2019-02-27T05:21:13.240Z,67.61
2019-02-27T05:23:42.470Z,67.67
2019-02-27T05:26:13.227Z,67.51
2019-02-27T05:28:43.898Z,67.64
2019-02-27T05:31:18.283Z,67.60
2019-02-27T05:33:45.517Z,67.53
2019-02-27T05:36:15.015Z,67.39
2019-02-27T05:38:45.074Z,67.49
2019-02-27T05:41:14.986Z,67.53
2019-02-27T05:43:47.910Z,67.61
2019-02-27T05:46:15.153Z,67.65
2019-02-27T05:48:44.498Z,67.69
2019-02-27T05:51:15.542Z,67.64
2019-02-27T05:53:49.456Z,67.54
2019-02-27T05:56:18.645Z,67.69
2019-02-27T05:58:49.173Z,67.93
2019-02-27T06:01:18.359Z,68.12
2019-02-27T06:03:52.131Z,68.21
2019-02-27T06:06:21.130Z,68.40
2019-02-27T06:08:52.243Z,68.48
2019-02-27T06:11:22.042Z,68.46
2019-02-27T06:13:58.151Z,68.53
2019-02-27T06:16:27.362Z,68.66
2019-02-27T06:18:57.445Z,68.70
2019-02-27T06:21:26.920Z,68.82
2019-02-27T06:23:56.480Z,69.10
2019-02-27T06:26:26.402Z,69.32
2019-02-27T06:28:56.542Z,69.72
2019-02-27T06:31:26.422Z,70.30
2019-02-27T06:33:55.583Z,70.71
2019-02-27T06:36:26.779Z,70.80
2019-02-27T06:39:00.136Z,70.86
2019-02-27T06:41:26.184Z,70.95
2019-02-27T06:43:55.898Z,71.10
2019-02-27T06:46:25.102Z,71.23
2019-02-27T06:48:56.472Z,71.05
2019-02-27T06:51:25.246Z,71.26
2019-02-27T06:53:54.382Z,71.21
2019-02-27T06:56:23.910Z,70.95
2019-02-27T06:58:53.718Z,71.10
2019-02-27T07:01:22.930Z,71.06
2019-02-27T07:03:52.517Z,70.85
2019-02-27T07:06:22.338Z,71.03
2019-02-27T07:08:51.886Z,70.78
2019-02-27T07:11:21.365Z,70.73
2019-02-27T07:13:50.559Z,70.73
2019-02-27T07:16:20.559Z,70.83
2019-02-27T07:18:50.083Z,70.95
2019-02-27T07:21:19.960Z,71.16
2019-02-27T07:23:49.094Z,71.23
2019-02-27T07:26:18.510Z,71.12
2019-02-27T07:28:48.311Z,71.19
2019-02-27T07:31:18.377Z,70.95
2019-02-27T07:33:47.920Z,70.55
2019-02-27T07:36:17.091Z,70.26
2019-02-27T07:38:46.850Z,69.80
2019-02-27T07:41:20.297Z,69.27
2019-02-27T07:43:46.392Z,68.86
2019-02-27T07:46:16.042Z,68.26
2019-02-27T07:48:45.658Z,67.70
2019-02-27T07:51:14.754Z,67.23
2019-02-27T07:53:44.594Z,66.50
2019-02-27T07:56:13.978Z,65.51
2019-02-27T07:58:43.468Z,64.95
2019-02-27T08:01:13.418Z,64.40
2019-02-27T08:03:45.104Z,64.35
2019-02-27T08:06:12.150Z,64.03
2019-02-27T08:08:41.906Z,63.21
2019-02-27T08:11:13.582Z,62.91
2019-02-27T08:13:41.007Z,62.64
2019-02-27T08:16:10.240Z,62.27
2019-02-27T08:18:40.294Z,61.86
2019-02-27T08:21:09.453Z,61.36
2019-02-27T08:23:39.222Z,60.98
2019-02-27T08:26:08.774Z,60.62
2019-02-27T08:28:38.503Z,60.17
2019-02-27T08:31:07.758Z,59.79
2019-02-27T08:33:37.785Z,59.51
2019-02-27T08:36:07.071Z,58.56
2019-02-27T08:38:36.271Z,58.17
2019-02-27T08:41:05.787Z,57.52
2019-02-27T08:43:35.506Z,57.15
2019-02-27T08:46:05.318Z,56.62
2019-02-27T08:48:35.498Z,55.56
2019-02-27T08:51:07.759Z,55.64
2019-02-27T08:53:35.166Z,55.37
2019-02-27T08:56:04.788Z,55.33
2019-02-27T08:58:34.077Z,54.38
2019-02-27T09:01:03.606Z,54.31
2019-02-27T09:03:36.157Z,53.67
2019-02-27T09:06:03.034Z,53.14
2019-02-27T09:08:32.358Z,52.59
2019-02-27T09:11:05.585Z,51.88
2019-02-27T09:13:31.302Z,51.49
2019-02-27T09:16:00.454Z,51.19
2019-02-27T09:18:29.883Z,50.80
2019-02-27T09:20:59.216Z,50.76
2019-02-27T09:23:28.421Z,50.60
2019-02-27T09:26:02.530Z,50.80
2019-02-27T09:28:27.999Z,50.52
2019-02-27T09:30:57.295Z,50.00
2019-02-27T09:33:28.414Z,48.83
2019-02-27T09:35:57.606Z,47.52
2019-02-27T09:38:26.792Z,47.40
2019-02-27T09:40:56.235Z,47.39
2019-02-27T09:43:27.240Z,46.32
2019-02-27T09:45:56.113Z,46.17
2019-02-27T09:48:25.499Z,46.20
2019-02-27T09:50:54.742Z,45.86
2019-02-27T09:53:23.902Z,44.40
2019-02-27T09:55:54.393Z,42.63
2019-02-27T09:58:23.250Z,43.54
2019-02-27T10:00:59.346Z,43.46
2019-02-27T10:03:24.818Z,42.49
2019-02-27T10:05:54.597Z,42.39
2019-02-27T10:08:25.233Z,42.61
2019-02-27T10:10:53.361Z,43.02
2019-02-27T10:13:23.180Z,41.74
2019-02-27T10:15:52.366Z,42.29
2019-02-27T10:18:22.189Z,41.56
2019-02-27T10:20:51.239Z,41.33
2019-02-27T10:23:20.876Z,39.56
2019-02-27T10:25:50.400Z,40.34
2019-02-27T10:28:19.478Z,39.79
2019-02-27T10:30:49.911Z,39.71
2019-02-27T10:33:18.806Z,37.18
2019-02-27T10:35:48.173Z,38.32
2019-02-27T10:38:17.500Z,38.27
2019-02-27T10:40:46.910Z,37.04
2019-02-27T10:43:16.069Z,37.51
2019-02-27T10:45:48.549Z,36.10
2019-02-27T10:48:14.895Z,36.68
2019-02-27T10:50:44.069Z,37.50
2019-02-27T10:53:13.907Z,37.17
2019-02-27T10:55:43.370Z,35.66
2019-02-27T10:58:13.177Z,36.85
2019-02-27T11:00:41.998Z,37.24
2019-02-27T11:03:11.410Z,37.83
2019-02-27T11:05:40.538Z,38.14
2019-02-27T11:08:09.706Z,36.81
2019-02-27T11:10:39.348Z,36.81
2019-02-27T11:13:08.470Z,37.85
2019-02-27T11:15:41.147Z,38.41
2019-02-27T11:18:07.447Z,38.51
2019-02-27T11:20:36.675Z,37.56
2019-02-27T11:23:07.112Z,38.20
2019-02-27T11:25:35.482Z,38.29
2019-02-27T11:28:04.731Z,38.04
2019-02-27T11:30:36.782Z,38.16
2019-02-27T11:33:05.374Z,37.96
2019-02-27T11:35:34.567Z,36.65
2019-02-27T11:38:04.174Z,36.43
2019-02-27T11:40:33.609Z,36.13
2019-02-27T11:43:06.341Z,36.04
2019-02-27T11:45:32.491Z,36.62
2019-02-27T11:48:02.024Z,36.52
2019-02-27T11:50:31.986Z,36.76
2019-02-27T11:53:02.747Z,35.78
2019-02-27T11:55:31.102Z,35.19
2019-02-27T11:58:04.259Z,34.24
2019-02-27T12:00:30.259Z,35.29
2019-02-27T12:02:59.953Z,34.88
2019-02-27T12:05:33.852Z,33.09
2019-02-27T12:07:59.222Z,33.97
2019-02-27T12:10:29.186Z,34.53
2019-02-27T12:13:00.676Z,33.79
2019-02-27T12:15:27.654Z,33.30
2019-02-27T12:18:00.649Z,31.94
2019-02-27T12:20:26.904Z,32.26
2019-02-27T12:22:56.295Z,32.38
2019-02-27T12:25:29.150Z,33.17
2019-02-27T12:27:57.108Z,33.29
2019-02-27T12:30:26.781Z,32.63
2019-02-27T12:32:57.058Z,32.54
2019-02-27T12:35:27.863Z,33.24
2019-02-27T12:37:57.182Z,32.81
2019-02-27T12:40:26.894Z,32.03
2019-02-27T12:42:56.298Z,31.70
2019-02-27T12:45:26.799Z,32.32
2019-02-27T12:47:56.454Z,31.44
2019-02-27T12:50:30.620Z,31.21
2019-02-27T12:52:56.246Z,32.03
2019-02-27T12:55:26.018Z,32.04
2019-02-27T12:57:55.274Z,31.98
2019-02-27T13:00:27.078Z,30.11
2019-02-27T13:02:58.796Z,31.01
2019-02-27T13:05:27.304Z,30.48
2019-02-27T13:07:56.015Z,29.87
2019-02-27T13:10:25.838Z,30.67
2019-02-27T13:12:55.736Z,29.77
2019-02-27T13:15:25.121Z,29.09
2019-02-27T13:17:57.703Z,28.90
2019-02-27T13:20:26.182Z,28.54
2019-02-27T13:22:55.771Z,29.19
2019-02-27T13:25:25.009Z,28.71
2019-02-27T13:27:54.207Z,28.85
2019-02-27T13:30:23.786Z,28.65
2019-02-27T13:32:52.985Z,27.79
2019-02-27T13:35:22.958Z,27.65
2019-02-27T13:37:52.239Z,27.41
2019-02-27T13:40:21.545Z,27.94
2019-02-27T13:42:53.452Z,28.83
2019-02-27T13:45:22.334Z,28.14
2019-02-27T13:47:51.526Z,26.96
2019-02-27T13:50:23.431Z,26.83
2019-02-27T13:52:53.602Z,26.65
2019-02-27T13:55:23.154Z,27.47
2019-02-27T13:57:52.402Z,26.91
2019-02-27T14:00:26.148Z,24.78
2019-02-27T14:02:55.520Z,26.03
2019-02-27T14:05:24.772Z,26.06
2019-02-27T14:07:58.316Z,26.70
2019-02-27T14:10:24.550Z,26.52
2019-02-27T14:12:53.774Z,26.77
2019-02-27T14:15:26.957Z,27.59
2019-02-27T14:17:52.860Z,28.38
2019-02-27T14:20:22.087Z,28.70
2019-02-27T14:22:51.845Z,27.79
2019-02-27T14:25:22.591Z,28.41
2019-02-27T14:27:52.572Z,28.46
2019-02-27T14:30:26.731Z,27.88
2019-02-27T14:32:56.919Z,28.25
2019-02-27T14:35:26.410Z,26.66
2019-02-27T14:37:56.208Z,27.57
2019-02-27T14:40:25.430Z,26.56
2019-02-27T14:42:55.149Z,26.13
2019-02-27T14:45:25.145Z,26.70
2019-02-27T14:47:54.343Z,26.77
2019-02-27T14:50:23.766Z,25.38
2019-02-27T14:52:53.195Z,25.83
2019-02-27T14:55:22.585Z,25.30
2019-02-27T14:57:51.714Z,25.24
2019-02-27T15:00:25.860Z,24.73
2019-02-27T15:02:55.872Z,25.91
2019-02-27T15:05:24.431Z,26.50
2019-02-27T15:07:54.863Z,25.71
2019-02-27T15:10:23.815Z,25.21
2019-02-27T15:12:55.217Z,25.31
2019-02-27T15:15:24.658Z,25.08
2019-02-27T15:17:54.253Z,25.32
2019-02-27T15:20:23.812Z,25.32
2019-02-27T15:22:53.722Z,25.75
2019-02-27T15:25:22.612Z,26.01
2019-02-27T15:27:51.843Z,25.92
2019-02-27T15:30:23.109Z,25.87
2019-02-27T15:32:52.512Z,25.57
2019-02-27T15:35:22.263Z,25.83
2019-02-27T15:37:51.607Z,24.98
2019-02-27T15:40:21.972Z,25.87
2019-02-27T15:42:51.140Z,26.19
2019-02-27T15:45:21.391Z,26.26
2019-02-27T15:47:51.171Z,26.29
2019-02-27T15:50:23.022Z,26.76
2019-02-27T15:52:52.851Z,26.63
2019-02-27T15:55:22.130Z,26.72
2019-02-27T15:57:53.682Z,27.09
2019-02-27T16:00:22.162Z,26.96
2019-02-27T16:02:51.297Z,27.19
2019-02-27T16:05:20.570Z,27.27
2019-02-27T16:07:50.825Z,27.43
2019-02-27T16:10:21.192Z,27.31
2019-02-27T16:12:52.230Z,27.82
2019-02-27T16:15:21.810Z,27.83
2019-02-27T16:17:56.197Z,27.94
2019-02-27T16:20:25.810Z,28.09
2019-02-27T16:22:55.091Z,28.26
2019-02-27T16:25:24.426Z,28.21
2019-02-27T16:27:55.431Z,28.22
2019-02-27T16:46:44.722Z,28.84
2019-02-27T16:51:52.050Z,29.84
2019-02-27T16:54:24.033Z,30.04
2019-02-27T16:56:51.043Z,30.16
2019-02-27T16:59:20.158Z,29.96
2019-02-27T17:01:49.709Z,30.31
2019-02-27T17:04:18.807Z,30.64
2019-02-27T17:06:49.187Z,31.06
2019-02-27T17:09:17.998Z,31.59
2019-02-27T17:11:47.121Z,31.89
2019-02-27T17:14:16.942Z,31.88
2019-02-27T17:16:46.321Z,32.13
2019-02-27T17:19:15.454Z,32.25
2019-02-27T17:21:44.554Z,32.43
2019-02-27T17:24:14.014Z,32.42
2019-02-27T17:26:43.398Z,32.47
2019-02-27T17:29:13.774Z,32.51
2019-02-27T17:31:48.965Z,32.59
2019-02-27T17:34:13.775Z,32.58
2019-02-27T17:36:41.570Z,32.70
2019-02-27T17:39:11.001Z,32.82
2019-02-27T17:41:41.883Z,32.95
2019-02-27T17:44:10.232Z,33.07
2019-02-27T17:46:40.590Z,33.25
2019-02-27T17:49:09.763Z,33.30
2019-02-27T17:51:40.624Z,33.46
2019-02-27T17:54:10.191Z,33.62
2019-02-27T17:56:39.337Z,33.80
2019-02-27T17:59:09.308Z,33.87
2019-02-27T18:01:38.007Z,33.98
2019-02-27T18:04:07.188Z,34.07
2019-02-27T18:06:36.926Z,34.16
2019-02-27T18:09:07.706Z,34.26
2019-02-27T18:11:36.850Z,34.36
2019-02-27T18:14:08.837Z,34.46
2019-02-27T18:16:35.809Z,34.52
2019-02-27T18:19:04.959Z,34.62
2019-02-27T18:21:34.530Z,34.73
2019-02-27T18:24:04.079Z,35.00
2019-02-27T18:26:33.427Z,35.13
2019-02-27T18:29:04.347Z,35.45
2019-02-27T18:31:32.550Z,35.69
2019-02-27T18:34:01.860Z,35.96
2019-02-27T18:36:32.042Z,36.17
2019-02-27T18:39:02.509Z,36.35
2019-02-27T18:41:31.050Z,36.52
2019-02-27T18:44:04.177Z,36.66
2019-02-27T18:46:30.390Z,36.80
2019-02-27T18:48:59.737Z,36.90
2019-02-27T18:51:29.961Z,37.08
2019-02-27T18:53:59.249Z,37.14
2019-02-27T18:56:28.550Z,37.15
2019-02-27T18:58:58.438Z,37.51
2019-02-27T19:01:27.943Z,37.68
2019-02-27T19:04:01.159Z,37.83
2019-02-27T19:06:28.134Z,38.10
2019-02-27T19:08:59.575Z,38.34
2019-02-27T19:11:27.464Z,38.59
2019-02-27T19:13:56.671Z,38.76
2019-02-27T19:16:26.210Z,38.88
2019-02-27T19:18:59.658Z,38.93
2019-02-27T19:21:32.754Z,38.79
2019-02-27T19:23:59.060Z,38.89
2019-02-27T19:26:28.716Z,39.19
2019-02-27T19:28:59.558Z,39.37
2019-02-27T19:31:27.957Z,39.60
2019-02-27T19:33:57.159Z,39.81
2019-02-27T19:36:30.525Z,40.07
2019-02-27T19:38:56.110Z,40.30
2019-02-27T19:41:25.230Z,40.54
2019-02-27T19:43:55.797Z,40.78
2019-02-27T19:46:23.915Z,40.93
2019-02-27T19:48:53.502Z,41.05
2019-02-27T19:51:22.668Z,41.22
2019-02-27T19:53:52.091Z,41.45
2019-02-27T19:56:21.839Z,41.63
2019-02-27T19:58:51.982Z,41.71
2019-02-27T20:01:20.498Z,41.82
2019-02-27T20:03:49.848Z,41.86
2019-02-27T20:06:18.962Z,42.07
2019-02-27T20:08:48.482Z,42.18
2019-02-27T20:11:18.101Z,42.28
2019-02-27T20:13:47.226Z,42.45
2019-02-27T20:16:17.765Z,42.56
2019-02-27T20:18:54.532Z,42.80
2019-02-27T20:21:16.626Z,42.90
2019-02-27T20:23:46.795Z,42.99
2019-02-27T20:26:20.051Z,43.17
2019-02-27T20:28:45.686Z,43.26
2019-02-27T20:31:17.984Z,43.30
2019-02-27T20:33:45.130Z,43.43
2019-02-27T20:36:14.339Z,43.57
2019-02-27T20:38:43.963Z,43.78
2019-02-27T20:41:13.181Z,44.01
2019-02-27T20:43:42.369Z,44.26
2019-02-27T20:46:14.695Z,44.62
2019-02-27T20:48:42.346Z,44.73
2019-02-27T20:51:11.807Z,45.01
2019-02-27T20:53:41.603Z,45.18
2019-02-27T20:56:11.338Z,45.27
2019-02-27T20:58:40.597Z,45.34
2019-02-27T21:01:13.659Z,45.33
2019-02-27T21:03:40.074Z,45.42
2019-02-27T21:06:12.750Z,45.44
2019-02-27T21:08:39.286Z,45.58
2019-02-27T21:11:08.423Z,45.64
2019-02-27T21:13:37.526Z,45.81
2019-02-27T21:16:09.472Z,46.00
2019-02-27T21:18:36.946Z,46.00
2019-02-27T21:21:06.250Z,46.12
2019-02-27T21:23:35.658Z,46.20
2019-02-27T21:26:04.996Z,46.28
2019-02-27T21:28:34.114Z,46.33
2019-02-27T21:31:03.620Z,46.28
2019-02-27T21:33:32.734Z,46.31
2019-02-27T21:36:03.371Z,46.33
2019-02-27T21:38:31.422Z,46.39
2019-02-27T21:41:00.566Z,46.37
2019-02-27T21:43:30.942Z,46.48
2019-02-27T21:46:00.385Z,46.68
2019-02-27T21:48:29.517Z,46.72
2019-02-27T21:50:59.341Z,46.71
2019-02-27T21:53:29.468Z,46.78
2019-02-27T21:55:58.126Z,47.00
2019-02-27T21:58:31.929Z,47.13
2019-02-27T22:00:56.858Z,47.33
2019-02-27T22:03:26.027Z,47.62
2019-02-27T22:05:55.341Z,47.69
2019-02-27T22:08:25.369Z,47.54
2019-02-27T22:10:55.112Z,47.51
2019-02-27T22:13:29.510Z,47.66
2019-02-27T22:15:56.673Z,47.72
2019-02-27T22:18:23.900Z,47.73
2019-02-27T22:20:53.062Z,47.72
2019-02-27T22:23:22.466Z,47.79
2019-02-27T22:25:52.020Z,47.81
2019-02-27T22:28:21.122Z,47.85
2019-02-27T22:30:50.501Z,47.97
2019-02-27T22:33:23.013Z,47.99
2019-02-27T22:35:49.555Z,48.12
2019-02-27T22:38:19.062Z,48.28
2019-02-27T22:40:48.974Z,48.37
2019-02-27T22:43:21.427Z,48.47
2019-02-27T22:45:48.648Z,48.61
2019-02-27T22:48:17.971Z,48.77
2019-02-27T22:50:48.457Z,49.03
2019-02-27T22:53:17.879Z,49.31
2019-02-27T22:55:47.470Z,49.43
2019-02-27T22:58:19.470Z,49.40
2019-02-27T23:01:14.917Z,49.44
2019-02-27T23:03:46.137Z,49.35
2019-02-27T23:06:15.690Z,49.29
2019-02-27T23:08:45.006Z,49.45
2019-02-27T23:11:14.306Z,49.71
2019-02-27T23:13:47.542Z,49.90
2019-02-27T23:16:17.943Z,49.90
2019-02-27T23:18:47.190Z,49.96
2019-02-27T23:21:17.182Z,50.02
2019-02-27T23:23:47.960Z,50.01
2019-02-27T23:26:20.192Z,50.12
2019-02-27T23:28:49.070Z,50.17
2019-02-27T23:31:22.457Z,50.22
2019-02-27T23:33:48.775Z,50.28
2019-02-27T23:36:22.116Z,50.25
2019-02-27T23:38:48.284Z,50.11
2019-02-27T23:41:22.798Z,50.16
2019-02-27T23:43:48.366Z,50.21
2019-02-27T23:46:18.587Z,50.26
2019-02-27T23:48:48.110Z,50.31
2019-02-27T23:51:18.266Z,50.40
2019-02-27T23:53:47.943Z,50.40
2019-02-27T23:56:20.243Z,50.38
2019-02-27T23:58:48.196Z,50.38
